Time;durP1;ratioP1;P1;durP2;ratioP2;P2;SDS_P1;SDS_P2;PMS_P1;PMS_P2;Temp;Humidity;BMP_temperature;BMP_pressure;BME280_temperature;BME280_humidity;BME280_pressure;Samples;Min_cycle;Max_cycle;Signal;HPM_P1;HPM_P2
2023/03/10 00:02:20;;;;;;;5.93;3.33;;;4.60;99.90;;;;;;4996259;28;20077;-83
2023/03/10 00:04:50;;;;;;;5.10;3.20;;;4.80;99.90;;;;;;4996556;28;20097;-82
2023/03/10 00:07:16;;;;;;;7.03;3.43;;;4.70;99.90;;;;;;4978750;28;20398;-82
2023/03/10 00:09:42;;;;;;;6.50;3.73;;;4.70;99.90;;;;;;4978751;28;20022;-81
2023/03/10 00:12:08;;;;;;;6.20;3.17;;;4.70;99.90;;;;;;4978326;28;20034;-81
2023/03/10 00:14:34;;;;;;;6.73;3.57;;;4.70;99.90;;;;;;4978422;28;20414;-81
2023/03/10 00:16:59;;;;;;;6.67;3.53;;;4.70;99.90;;;;;;4978829;28;20061;-81
2023/03/10 00:19:25;;;;;;;7.57;3.37;;;4.70;99.90;;;;;;4994829;28;20073;-81
2023/03/10 00:21:51;;;;;;;6.17;3.20;;;4.70;99.90;;;;;;4978500;28;20459;-79
2023/03/10 00:24:17;;;;;;;6.93;3.53;;;4.70;99.90;;;;;;4978243;28;20115;-79
2023/03/10 00:26:44;;;;;;;6.40;3.63;;;4.70;99.90;;;;;;4995856;28;20084;-81
2023/03/10 00:29:10;;;;;;;6.93;3.60;;;4.70;99.90;;;;;;4994525;28;20062;-79
2023/03/10 00:31:36;;;;;;;6.10;3.37;;;4.70;99.90;;;;;;4978173;28;20497;-79
2023/03/10 00:34:02;;;;;;;5.87;3.17;;;4.60;99.90;;;;;;4978216;28;20029;-79
2023/03/10 00:36:30;;;;;;;5.67;3.20;;;4.70;99.90;;;;;;4978330;28;20038;-82
2023/03/10 00:38:56;;;;;;;6.07;3.33;;;4.80;99.90;;;;;;4996210;28;20049;-80
2023/03/10 00:41:27;;;;;;;6.53;3.80;;;4.70;99.90;;;;;;4977958;28;20022;-80
2023/03/10 00:43:52;;;;;;;5.53;2.90;;;4.90;99.90;;;;;;4977838;28;20022;-80
2023/03/10 00:46:19;;;;;;;6.37;3.33;;;4.80;99.90;;;;;;4978028;28;20502;-80
2023/03/10 00:48:44;;;;;;;6.20;3.80;;;4.80;99.90;;;;;;4977381;28;20042;-79
2023/03/10 00:51:11;;;;;;;6.17;3.40;;;4.80;99.90;;;;;;4977646;28;20027;-80
2023/03/10 00:53:38;;;;;;;6.33;3.70;;;4.90;99.90;;;;;;4994079;28;20065;-80
2023/03/10 00:56:07;;;;;;;6.57;3.50;;;4.80;99.90;;;;;;4977691;28;20383;-79
2023/03/10 00:58:33;;;;;;;5.83;2.93;;;4.90;99.90;;;;;;4977560;28;20042;-80
2023/03/10 01:01:00;;;;;;;6.63;3.70;;;4.90;99.90;;;;;;4977273;28;20041;-80
2023/03/10 01:03:26;;;;;;;6.63;3.53;;;4.90;99.90;;;;;;4977624;28;20030;-79
2023/03/10 01:05:55;;;;;;;7.17;3.97;;;4.90;99.90;;;;;;4977743;28;20030;-79
2023/03/10 01:08:21;;;;;;;5.87;3.47;;;5.00;99.90;;;;;;4994860;28;20081;-80
2023/03/10 01:10:48;;;;;;;6.10;3.63;;;4.90;99.90;;;;;;4994161;28;20026;-81
2023/03/10 01:13:14;;;;;;;7.00;3.47;;;4.90;99.90;;;;;;4977390;28;20022;-80
2023/03/10 01:15:43;;;;;;;6.30;3.70;;;5.00;99.90;;;;;;4977534;28;20065;-80
2023/03/10 01:18:09;;;;;;;6.10;3.40;;;5.00;99.90;;;;;;4977081;28;20133;-80
2023/03/10 01:20:35;;;;;;;6.93;3.57;;;4.90;99.90;;;;;;4977042;28;20023;-81
2023/03/10 01:23:01;;;;;;;5.73;3.33;;;5.00;99.90;;;;;;4977150;28;20041;-81
2023/03/10 01:25:27;;;;;;;6.47;3.83;;;4.90;99.90;;;;;;4993471;28;20113;-81
2023/03/10 01:27:53;;;;;;;6.03;3.67;;;5.00;99.90;;;;;;4993489;28;20533;-82
2023/03/10 01:30:19;;;;;;;6.13;3.33;;;5.00;99.90;;;;;;4958642;28;20054;-81
2023/03/10 01:32:45;;;;;;;6.77;3.90;;;5.00;99.90;;;;;;4957985;28;20041;-82
2023/03/10 01:35:11;;;;;;;5.63;2.87;;;5.20;99.90;;;;;;4975055;28;20034;-81
2023/03/10 01:37:36;;;;;;;6.03;3.27;;;5.10;99.90;;;;;;4975256;28;20057;-81
2023/03/10 01:40:04;;;;;;;7.63;4.17;;;5.00;99.90;;;;;;4973994;28;20033;-81
2023/03/10 01:42:30;;;;;;;5.90;3.13;;;5.10;99.90;;;;;;4957617;28;20035;-81
2023/03/10 01:45:22;;;;;;;5.97;3.57;;;5.10;99.90;;;;;;4957599;28;20034;-80
2023/03/10 01:47:47;;;;;;;6.40;3.53;;;5.20;99.90;;;;;;4949500;28;20038;-81
2023/03/10 01:50:16;;;;;;;5.80;3.27;;;5.10;99.90;;;;;;4957646;28;20029;-81
2023/03/10 01:52:46;;;;;;;6.73;3.70;;;5.20;99.90;;;;;;4967129;28;20502;-81
2023/03/10 01:55:19;;;;;;;6.70;3.40;;;5.20;99.90;;;;;;4974945;28;20467;-82
2023/03/10 01:57:53;;;;;;;6.67;3.73;;;5.20;99.90;;;;;;4957416;28;20558;-82
2023/03/10 02:00:20;;;;;;;6.00;3.60;;;5.20;99.90;;;;;;4974238;28;20027;-81
2023/03/10 02:02:56;;;;;;;5.83;3.60;;;5.20;99.90;;;;;;4980213;28;20035;-82
2023/03/10 02:05:22;;;;;;;6.60;3.77;;;5.30;99.90;;;;;;4988396;28;20023;-82
2023/03/10 02:07:49;;;;;;;6.57;3.90;;;5.20;99.90;;;;;;4968712;28;20050;-81
2023/03/10 02:10:15;;;;;;;7.37;4.10;;;5.20;99.90;;;;;;4978158;28;20080;-79
2023/03/10 02:12:44;;;;;;;7.57;4.20;;;5.20;99.90;;;;;;4976848;28;20047;-81
2023/03/10 02:15:10;;;;;;;7.50;4.47;;;5.20;99.90;;;;;;4975001;28;20031;-80
2023/03/10 02:17:37;;;;;;;7.07;4.07;;;5.30;99.90;;;;;;4957320;28;20038;-79
2023/03/10 02:20:28;;;;;;;7.43;4.23;;;5.30;99.90;;;;;;4956796;28;20051;-80
2023/03/10 02:22:54;;;;;;;6.60;4.10;;;5.20;99.90;;;;;;4974152;28;20029;-80
2023/03/10 02:25:31;;;;;;;7.47;4.17;;;5.30;99.90;;;;;;4956856;28;20117;-81
2023/03/10 02:27:58;;;;;;;7.13;4.37;;;5.30;99.90;;;;;;4972966;28;20518;-81
2023/03/10 02:30:29;;;;;;;7.90;4.40;;;5.30;99.90;;;;;;4990636;28;20495;-81
2023/03/10 02:32:58;;;;;;;7.87;4.50;;;5.40;99.90;;;;;;4993716;28;20034;-80
2023/03/10 02:35:24;;;;;;;8.37;4.67;;;5.30;99.90;;;;;;4976256;28;20064;-80
2023/03/10 02:37:50;;;;;;;8.10;4.67;;;5.30;99.90;;;;;;4976254;28;20042;-80
2023/03/10 02:40:34;;;;;;;9.23;4.40;;;5.30;99.90;;;;;;4975770;28;20471;-80
2023/03/10 02:43:04;;;;;;;8.40;4.90;;;5.30;99.90;;;;;;4993660;28;20110;-78
2023/03/10 02:45:34;;;;;;;8.77;4.87;;;5.40;99.90;;;;;;4975820;28;20054;-79
2023/03/10 02:48:00;;;;;;;8.03;4.70;;;5.30;99.90;;;;;;4993616;28;20035;-81
2023/03/10 02:50:28;;;;;;;8.10;4.83;;;5.30;99.90;;;;;;4992495;28;20106;-80
2023/03/10 02:53:02;;;;;;;9.27;5.27;;;5.30;99.90;;;;;;4993321;28;20065;-81
2023/03/10 02:55:28;;;;;;;7.45;4.93;;;5.30;99.90;;;;;;4993605;28;20029;-81
2023/03/10 02:57:54;;;;;;;9.53;5.07;;;5.30;99.90;;;;;;4992907;28;20022;-81
2023/03/10 03:00:20;;;;;;;9.67;4.77;;;5.30;99.90;;;;;;4993404;28;20023;-81
2023/03/10 03:02:45;;;;;;;8.67;5.40;;;5.30;99.90;;;;;;4976300;28;20082;-81
2023/03/10 03:05:11;;;;;;;8.67;4.80;;;5.30;99.90;;;;;;4976066;28;20022;-81
2023/03/10 03:07:36;;;;;;;8.47;4.67;;;5.30;99.90;;;;;;4975671;28;20070;-81
2023/03/10 03:10:03;;;;;;;7.57;4.40;;;5.30;99.90;;;;;;4975881;28;20030;-80
2023/03/10 03:12:29;;;;;;;9.00;4.90;;;5.30;99.90;;;;;;4979151;28;20019;-81
2023/03/10 03:14:54;;;;;;;6.70;3.83;;;5.30;99.90;;;;;;4996224;28;20030;-81
2023/03/10 03:17:20;;;;;;;7.47;4.07;;;5.30;99.90;;;;;;4996915;28;20027;-81
2023/03/10 03:19:46;;;;;;;8.53;4.40;;;5.30;99.90;;;;;;4997274;28;20042;-81
2023/03/10 03:22:11;;;;;;;8.07;4.57;;;5.30;99.90;;;;;;4995791;28;20031;-81
2023/03/10 03:24:37;;;;;;;8.27;4.03;;;5.30;99.90;;;;;;4979364;28;20513;-81
2023/03/10 03:27:04;;;;;;;7.97;4.80;;;5.30;99.90;;;;;;4978973;28;20360;-80
2023/03/10 03:29:29;;;;;;;8.27;5.00;;;5.30;99.90;;;;;;4979481;28;20075;-80
2023/03/10 03:31:55;;;;;;;9.60;5.00;;;5.30;99.90;;;;;;4979029;28;20065;-80
2023/03/10 03:34:21;;;;;;;8.17;4.83;;;5.30;99.90;;;;;;4979525;28;20030;-80
2023/03/10 03:36:46;;;;;;;10.30;5.23;;;5.30;99.90;;;;;;4979023;28;20173;-80
2023/03/10 03:39:16;;;;;;;10.03;5.57;;;5.30;99.90;;;;;;4995780;28;20042;-80
2023/03/10 03:41:42;;;;;;;8.33;5.07;;;5.30;99.90;;;;;;4979126;28;20030;-80
2023/03/10 03:44:08;;;;;;;9.87;5.53;;;5.30;99.90;;;;;;4979677;28;20070;-80
2023/03/10 03:46:33;;;;;;;8.30;5.00;;;5.30;99.90;;;;;;4995716;28;20030;-80
2023/03/10 03:48:59;;;;;;;9.90;5.23;;;5.30;99.90;;;;;;4995363;28;20110;-81
2023/03/10 03:51:25;;;;;;;8.50;4.83;;;5.30;99.90;;;;;;4995077;28;20085;-81
2023/03/10 03:53:50;;;;;;;8.40;4.80;;;5.20;99.90;;;;;;4979231;28;20030;-80
2023/03/10 03:56:16;;;;;;;8.60;5.00;;;5.20;99.90;;;;;;4979083;28;20455;-81
2023/03/10 03:58:41;;;;;;;7.63;4.17;;;5.20;99.90;;;;;;4978832;28;20097;-81
2023/03/10 04:01:07;;;;;;;9.13;5.23;;;5.10;99.90;;;;;;4995028;28;20035;-81
2023/03/10 04:03:33;;;;;;;8.90;5.23;;;5.30;99.90;;;;;;4995366;28;20038;-81
2023/03/10 04:05:58;;;;;;;10.30;5.40;;;5.20;99.90;;;;;;4979059;28;20034;-81
2023/03/10 04:08:24;;;;;;;8.60;4.43;;;5.10;99.90;;;;;;4978763;28;20030;-81
2023/03/10 04:10:54;;;;;;;9.20;5.20;;;5.20;99.90;;;;;;4978771;28;20062;-80
2023/03/10 04:13:20;;;;;;;8.27;4.40;;;5.20;99.90;;;;;;4994957;28;20117;-80
2023/03/10 04:15:46;;;;;;;8.57;4.70;;;5.10;99.90;;;;;;4996158;28;20378;-80
2023/03/10 04:18:11;;;;;;;8.50;4.80;;;5.10;99.90;;;;;;4978353;28;20573;-82
2023/03/10 04:20:37;;;;;;;8.50;5.10;;;5.10;99.90;;;;;;4994715;28;20394;-82
2023/03/10 04:23:03;;;;;;;8.60;4.93;;;5.10;99.90;;;;;;4977639;28;20026;-81
2023/03/10 04:25:29;;;;;;;9.57;5.20;;;5.10;99.90;;;;;;4994347;28;20108;-82
2023/03/10 04:27:56;;;;;;;9.00;5.03;;;5.10;99.90;;;;;;4979641;28;20026;-81
2023/03/10 04:30:27;;;;;;;8.77;4.53;;;5.10;99.90;;;;;;4997108;28;20478;-81
2023/03/10 04:32:56;;;;;;;8.27;4.33;;;5.10;99.90;;;;;;4966973;28;20026;-81
2023/03/10 04:35:22;;;;;;;8.67;4.33;;;5.10;99.90;;;;;;5015077;28;20033;-81
2023/03/10 04:37:48;;;;;;;9.07;4.83;;;5.10;99.90;;;;;;4981091;28;20470;-81
2023/03/10 04:40:14;;;;;;;8.13;4.07;;;5.10;99.90;;;;;;4981705;28;20026;-81
2023/03/10 04:42:41;;;;;;;8.43;4.23;;;5.10;99.90;;;;;;4997759;28;20502;-82
2023/03/10 04:45:07;;;;;;;9.07;4.53;;;5.10;99.90;;;;;;5015624;28;20030;-81
2023/03/10 04:47:33;;;;;;;8.17;4.27;;;5.10;99.90;;;;;;5015362;28;20033;-81
2023/03/10 04:49:58;;;;;;;8.07;4.33;;;5.10;99.90;;;;;;5015090;28;20030;-81
2023/03/10 04:52:24;;;;;;;7.30;3.87;;;5.10;99.90;;;;;;4997695;28;20030;-80
2023/03/10 04:54:49;;;;;;;9.40;4.53;;;5.10;99.90;;;;;;5001474;28;20030;-80
2023/03/10 04:57:15;;;;;;;8.60;4.70;;;5.10;99.90;;;;;;5028411;28;20053;-82
2023/03/10 04:59:41;;;;;;;7.33;3.83;;;5.10;99.90;;;;;;5011305;28;20038;-84
2023/03/10 05:02:07;;;;;;;9.07;4.77;;;5.20;99.90;;;;;;4985997;28;20159;-83
2023/03/10 05:04:32;;;;;;;8.10;4.07;;;5.10;99.90;;;;;;4982208;28;20026;-83
2023/03/10 05:06:58;;;;;;;7.60;4.20;;;5.10;99.90;;;;;;4997371;28;20026;-82
2023/03/10 05:09:23;;;;;;;8.23;3.93;;;5.00;99.90;;;;;;4997041;28;20508;-80
2023/03/10 05:11:49;;;;;;;8.90;4.60;;;5.10;99.90;;;;;;4964721;28;20040;-80
2023/03/10 05:14:15;;;;;;;10.37;5.03;;;5.10;99.90;;;;;;5014780;28;20025;-80
2023/03/10 05:16:41;;;;;;;10.50;4.67;;;5.10;99.90;;;;;;4980959;28;20146;-81
2023/03/10 05:19:07;;;;;;;9.27;4.50;;;5.00;99.90;;;;;;4996712;28;20037;-81
2023/03/10 05:21:33;;;;;;;10.47;4.33;;;5.00;99.90;;;;;;5013323;28;20034;-78
2023/03/10 05:23:59;;;;;;;8.43;4.13;;;5.00;99.90;;;;;;4996652;28;20122;-79
2023/03/10 05:26:25;;;;;;;9.37;4.67;;;5.00;99.90;;;;;;4996496;28;20129;-81
2023/03/10 05:28:51;;;;;;;9.57;4.80;;;5.00;99.90;;;;;;4996649;28;20138;-80
2023/03/10 05:31:24;;;;;;;8.83;4.33;;;5.20;99.90;;;;;;5013838;28;20117;-79
2023/03/10 05:33:50;;;;;;;8.37;4.10;;;5.00;99.90;;;;;;4996306;28;20529;-79
2023/03/10 05:36:15;;;;;;;8.60;3.63;;;5.10;99.90;;;;;;4995833;28;20034;-81
2023/03/10 05:38:41;;;;;;;6.33;3.37;;;5.00;99.90;;;;;;4979963;28;20506;-79
2023/03/10 05:41:09;;;;;;;7.50;3.07;;;5.00;99.90;;;;;;4980060;28;20026;-79
2023/03/10 05:43:35;;;;;;;5.53;2.63;;;5.00;99.90;;;;;;5014027;28;20149;-79
2023/03/10 05:46:01;;;;;;;6.00;2.97;;;5.00;99.90;;;;;;4980511;28;20029;-80
2023/03/10 05:48:27;;;;;;;5.63;2.53;;;5.00;99.90;;;;;;4980069;28;20394;-80
2023/03/10 05:51:05;;;;;;;5.97;2.30;;;5.00;99.90;;;;;;4996472;28;20123;-79
2023/03/10 05:53:32;;;;;;;5.27;2.33;;;5.00;99.90;;;;;;5014075;28;20493;-79
2023/03/10 05:55:58;;;;;;;5.10;1.97;;;5.00;99.90;;;;;;4996630;28;20485;-79
2023/03/10 05:58:25;;;;;;;5.23;2.23;;;4.90;99.90;;;;;;4995754;28;20038;-81
2023/03/10 06:00:51;;;;;;;5.10;2.13;;;4.90;99.90;;;;;;4995688;28;20030;-81
2023/03/10 06:03:18;;;;;;;4.80;1.83;;;5.10;99.90;;;;;;4995420;28;20045;-80
2023/03/10 06:05:44;;;;;;;4.53;1.80;;;5.00;99.90;;;;;;5013448;28;20127;-81
2023/03/10 06:08:09;;;;;;;3.20;1.43;;;5.00;99.90;;;;;;5013885;28;20034;-84
2023/03/10 06:10:35;;;;;;;3.17;1.37;;;5.00;99.90;;;;;;4995144;28;20113;-80
2023/03/10 06:13:02;;;;;;;3.27;1.10;;;5.00;99.90;;;;;;4979829;28;20121;-80
2023/03/10 06:15:28;;;;;;;3.67;1.60;;;5.00;99.90;;;;;;4995898;28;20053;-80
2023/03/10 06:17:54;;;;;;;3.30;1.33;;;5.00;99.90;;;;;;5013410;28;20040;-80
2023/03/10 06:20:19;;;;;;;2.77;1.27;;;5.00;99.90;;;;;;4963408;28;20109;-80
2023/03/10 06:22:45;;;;;;;3.70;1.20;;;5.00;99.90;;;;;;4995749;28;20112;-80
2023/03/10 06:25:11;;;;;;;3.83;1.50;;;4.90;99.90;;;;;;4998920;28;20073;-80
2023/03/10 06:27:36;;;;;;;3.17;1.03;;;5.00;99.90;;;;;;4989393;28;20061;-80
2023/03/10 06:30:03;;;;;;;3.37;1.33;;;5.00;99.90;;;;;;4995453;28;20046;-80
2023/03/10 06:32:28;;;;;;;3.43;1.37;;;5.00;99.90;;;;;;4993794;28;20066;-80
2023/03/10 06:34:57;;;;;;;5.03;1.30;;;5.00;99.90;;;;;;5006885;28;20138;-79
2023/03/10 06:37:22;;;;;;;3.73;1.60;;;5.00;99.90;;;;;;4994063;28;20094;-80
2023/03/10 06:39:48;;;;;;;4.53;1.60;;;5.00;99.90;;;;;;4957408;28;20051;-80
2023/03/10 06:42:14;;;;;;;3.47;1.50;;;5.00;99.90;;;;;;4975712;28;20061;-81
2023/03/10 06:44:39;;;;;;;3.83;1.47;;;5.00;99.90;;;;;;4992462;28;20057;-81
2023/03/10 06:47:05;;;;;;;2.53;1.03;;;5.00;99.90;;;;;;4995246;28;20053;-81
2023/03/10 06:49:32;;;;;;;3.33;1.40;;;5.10;99.90;;;;;;4996283;28;20061;-81
2023/03/10 06:51:58;;;;;;;4.10;1.37;;;5.00;99.90;;;;;;4980393;28;20026;-81
2023/03/10 06:54:24;;;;;;;3.63;1.33;;;5.00;99.90;;;;;;4997528;28;20490;-81
2023/03/10 06:56:50;;;;;;;3.57;1.33;;;5.00;99.90;;;;;;4996347;28;20125;-81
2023/03/10 06:59:15;;;;;;;4.13;1.70;;;5.00;99.90;;;;;;4979561;28;20394;-80
2023/03/10 07:01:41;;;;;;;4.00;1.37;;;5.00;99.90;;;;;;4979391;28;20030;-80
2023/03/10 07:04:07;;;;;;;4.87;1.97;;;5.00;99.90;;;;;;4998576;28;20504;-81
2023/03/10 07:06:33;;;;;;;2.93;1.27;;;5.10;99.90;;;;;;4979879;28;20050;-79
2023/03/10 07:08:59;;;;;;;4.00;1.37;;;5.10;99.90;;;;;;4977428;28;20073;-80
2023/03/10 07:11:25;;;;;;;4.47;1.97;;;5.10;99.90;;;;;;4978674;28;20031;-80
2023/03/10 07:13:51;;;;;;;4.53;1.80;;;5.10;99.90;;;;;;4979058;28;20089;-81
2023/03/10 07:16:17;;;;;;;3.53;1.37;;;5.10;99.90;;;;;;4979367;28;20022;-80
2023/03/10 07:18:43;;;;;;;4.40;1.77;;;5.10;99.90;;;;;;4996748;28;20042;-80
2023/03/10 07:21:10;;;;;;;5.00;1.90;;;5.10;99.90;;;;;;5015794;28;20030;-80
2023/03/10 07:23:37;;;;;;;4.63;1.63;;;5.10;99.90;;;;;;4997287;28;20018;-80
2023/03/10 07:26:07;;;;;;;4.10;1.67;;;5.10;99.90;;;;;;5015788;28;20029;-80
2023/03/10 07:28:34;;;;;;;3.90;1.43;;;5.10;99.90;;;;;;4998345;28;20431;-80
2023/03/10 07:31:05;;;;;;;3.60;1.43;;;5.20;99.90;;;;;;4968917;28;20054;-81
2023/03/10 07:33:31;;;;;;;4.60;1.70;;;5.20;99.90;;;;;;4978751;28;20037;-81
2023/03/10 07:35:57;;;;;;;3.53;1.67;;;5.20;99.90;;;;;;4963671;28;20026;-81
2023/03/10 07:38:23;;;;;;;4.33;1.63;;;5.20;99.90;;;;;;4979076;28;20050;-80
2023/03/10 07:40:48;;;;;;;3.73;1.60;;;5.40;99.90;;;;;;4997367;28;20039;-81
2023/03/10 07:43:14;;;;;;;3.80;1.50;;;5.30;99.90;;;;;;4980976;28;20031;-80
2023/03/10 07:45:40;;;;;;;3.67;1.60;;;5.30;99.90;;;;;;4966490;28;20034;-80
2023/03/10 07:48:05;;;;;;;4.03;1.63;;;5.30;99.90;;;;;;4965421;28;20030;-80
2023/03/10 07:50:31;;;;;;;4.07;1.87;;;5.30;99.90;;;;;;4981773;28;20054;-80
2023/03/10 07:52:57;;;;;;;5.37;2.23;;;5.30;99.90;;;;;;4979529;28;20037;-79
2023/03/10 07:55:22;;;;;;;3.77;1.63;;;5.50;99.90;;;;;;4996438;28;20030;-79
2023/03/10 07:57:48;;;;;;;5.20;2.17;;;5.40;99.90;;;;;;4977923;28;20125;-79
2023/03/10 08:00:14;;;;;;;4.77;2.13;;;5.40;99.90;;;;;;4995666;28;20041;-79
2023/03/10 08:02:41;;;;;;;4.90;2.07;;;5.50;99.90;;;;;;4958209;28;20039;-79
2023/03/10 08:05:08;;;;;;;4.90;1.90;;;5.50;99.90;;;;;;4978072;28;20066;-79
2023/03/10 08:07:34;;;;;;;4.60;1.70;;;5.50;99.90;;;;;;4961868;28;20037;-79
2023/03/10 08:10:00;;;;;;;4.40;1.97;;;5.50;99.90;;;;;;4953961;28;20054;-80
2023/03/10 08:12:25;;;;;;;3.90;1.53;;;5.50;99.90;;;;;;4974789;28;20541;-79
2023/03/10 08:14:51;;;;;;;5.10;2.30;;;5.60;99.90;;;;;;4986970;28;20045;-80
2023/03/10 08:17:17;;;;;;;3.67;1.57;;;5.50;99.90;;;;;;4961846;28;20034;-80
2023/03/10 08:19:42;;;;;;;5.33;1.77;;;5.60;99.90;;;;;;4974617;28;20414;-80
2023/03/10 08:22:09;;;;;;;6.53;2.63;;;5.60;99.90;;;;;;4975066;28;20031;-79
2023/03/10 08:24:36;;;;;;;5.17;2.43;;;5.50;99.90;;;;;;4974710;28;20125;-79
2023/03/10 08:27:02;;;;;;;4.97;2.23;;;5.60;99.90;;;;;;4958559;28;20463;-80
2023/03/10 08:29:28;;;;;;;5.63;2.63;;;5.60;99.90;;;;;;4976644;28;20033;-79
2023/03/10 08:31:53;;;;;;;5.57;2.43;;;5.60;99.90;;;;;;4980638;28;20030;-80
2023/03/10 08:34:19;;;;;;;4.37;1.90;;;5.70;99.90;;;;;;4987365;28;20057;-79
2023/03/10 08:36:45;;;;;;;4.83;2.23;;;5.80;99.90;;;;;;4994079;28;20085;-80
2023/03/10 08:39:12;;;;;;;3.83;1.67;;;5.80;99.90;;;;;;4977693;28;20093;-80
2023/03/10 08:41:47;;;;;;;6.07;2.70;;;5.90;99.90;;;;;;4994783;28;20026;-80
2023/03/10 08:44:14;;;;;;;4.50;2.07;;;5.90;99.90;;;;;;5011374;28;20072;-79
2023/03/10 08:46:42;;;;;;;5.63;2.40;;;6.00;99.90;;;;;;4993394;28;20117;-80
2023/03/10 08:49:08;;;;;;;4.90;1.73;;;6.00;99.90;;;;;;4976900;28;20081;-81
2023/03/10 08:51:34;;;;;;;5.40;2.70;;;6.00;99.90;;;;;;4986638;28;20026;-84
2023/03/10 08:54:01;;;;;;;5.33;2.13;;;6.10;99.90;;;;;;5012880;28;20432;-84
2023/03/10 08:56:26;;;;;;;6.57;2.30;;;6.10;99.90;;;;;;5014485;28;20100;-82
2023/03/10 08:58:56;;;;;;;5.77;1.97;;;6.10;99.90;;;;;;4980726;28;20479;-80
2023/03/10 09:01:22;;;;;;;5.57;2.50;;;6.10;99.90;;;;;;4996529;28;20022;-82
2023/03/10 09:03:48;;;;;;;4.93;2.40;;;6.10;99.90;;;;;;4980192;28;20462;-84
2023/03/10 09:06:14;;;;;;;4.67;2.17;;;6.10;99.90;;;;;;4996331;28;20466;-80
2023/03/10 09:08:40;;;;;;;5.70;2.63;;;6.10;99.90;;;;;;5008020;28;20198;-80
2023/03/10 09:11:07;;;;;;;5.23;2.50;;;6.10;99.90;;;;;;4994648;28;20015;-80
2023/03/10 09:13:33;;;;;;;5.10;2.60;;;6.10;99.90;;;;;;5001142;28;20034;-80
2023/03/10 09:15:59;;;;;;;5.47;2.57;;;6.10;99.90;;;;;;4993174;28;20186;-80
2023/03/10 09:18:25;;;;;;;6.13;3.00;;;6.20;99.90;;;;;;5008793;28;20073;-79
2023/03/10 09:20:51;;;;;;;5.23;2.90;;;6.10;99.90;;;;;;4993544;28;20451;-80
2023/03/10 09:23:17;;;;;;;5.93;2.80;;;6.20;99.90;;;;;;4979549;28;20036;-80
2023/03/10 09:25:43;;;;;;;7.40;2.77;;;6.10;99.90;;;;;;4980262;28;20037;-79
2023/03/10 09:28:09;;;;;;;6.20;2.87;;;6.20;99.90;;;;;;4996008;28;20037;-79
2023/03/10 09:30:38;;;;;;;5.33;2.60;;;6.10;99.90;;;;;;4994824;28;20387;-80
2023/03/10 09:33:14;;;;;;;7.03;2.63;;;6.10;99.90;;;;;;5011015;28;20038;-80
2023/03/10 09:35:40;;;;;;;4.60;2.33;;;6.10;99.90;;;;;;4996365;28;20486;-79
2023/03/10 09:38:05;;;;;;;4.40;2.07;;;6.10;99.90;;;;;;5013861;28;20049;-80
2023/03/10 09:40:32;;;;;;;4.83;2.33;;;6.10;99.90;;;;;;4980734;28;20458;-80
2023/03/10 09:43:04;;;;;;;3.93;2.03;;;6.20;99.90;;;;;;4996043;28;20096;-80
2023/03/10 09:45:46;;;;;;;5.70;2.17;;;6.10;99.90;;;;;;4993545;28;20556;-81
2023/03/10 09:48:17;;;;;;;6.80;2.50;;;6.20;99.90;;;;;;4993878;28;20026;-80
2023/03/10 09:50:46;;;;;;;5.23;2.20;;;6.20;99.90;;;;;;5013611;28;20022;-80
2023/03/10 09:53:28;;;;;;;4.77;1.90;;;6.20;99.90;;;;;;5013929;28;20164;-80
2023/03/10 09:55:54;;;;;;;3.63;1.77;;;6.20;99.90;;;;;;4996112;28;20026;-80
2023/03/10 09:58:32;;;;;;;4.20;1.97;;;6.20;99.90;;;;;;4995944;28;20930;-79
2023/03/10 10:00:59;;;;;;;3.80;1.77;;;6.20;99.90;;;;;;4995108;28;20068;-80
2023/03/10 10:03:34;;;;;;;5.60;1.67;;;6.20;99.90;;;;;;5013385;28;20028;-80
2023/03/10 10:06:02;;;;;;;4.03;2.03;;;6.20;99.90;;;;;;4996140;28;20030;-80
2023/03/10 10:08:42;;;;;;;3.10;1.43;;;6.20;99.90;;;;;;4995463;28;20022;-80
2023/03/10 10:11:14;;;;;;;4.67;2.07;;;6.20;99.90;;;;;;4995802;28;20026;-80
2023/03/10 10:13:41;;;;;;;3.43;1.53;;;6.20;99.90;;;;;;5013422;28;20076;-80
2023/03/10 10:16:52;;;;;;;4.70;1.87;;;6.20;99.90;;;;;;5013675;28;20476;-79
2023/03/10 10:19:24;;;;;;;3.73;1.60;;;6.20;99.90;;;;;;4996140;28;20037;-80
2023/03/10 10:21:59;;;;;;;4.43;1.93;;;6.20;99.90;;;;;;4994991;28;20025;-79
2023/03/10 10:24:25;;;;;;;4.20;1.90;;;6.30;99.90;;;;;;5013775;28;20094;-79
2023/03/10 10:26:50;;;;;;;4.07;1.70;;;6.30;99.90;;;;;;4963811;28;20022;-80
2023/03/10 10:29:25;;;;;;;4.40;1.80;;;6.30;99.90;;;;;;4998775;28;20057;-80
2023/03/10 10:32:09;;;;;;;3.20;1.60;;;6.30;99.90;;;;;;5016247;28;20057;-80
2023/03/10 10:34:40;;;;;;;6.45;2.60;;;6.40;99.90;;;;;;4997254;28;20198;-79
2023/03/10 10:37:30;;;;;;;4.23;2.10;;;6.40;99.90;;;;;;4996022;28;20389;-80
2023/03/10 10:39:57;;;;;;;4.40;2.17;;;6.50;99.90;;;;;;4994901;28;20045;-79
2023/03/10 10:42:33;;;;;;;3.73;1.73;;;6.50;99.90;;;;;;4995476;28;20465;-80
2023/03/10 10:45:05;;;;;;;4.67;1.90;;;6.60;99.90;;;;;;4995332;28;20014;-79
2023/03/10 10:47:36;;;;;;;4.43;1.77;;;6.60;99.90;;;;;;4992282;28;20117;-80
2023/03/10 10:50:18;;;;;;;4.17;1.80;;;6.70;99.90;;;;;;4995623;28;20399;-80
2023/03/10 10:52:48;;;;;;;3.20;1.40;;;6.80;99.90;;;;;;5012972;28;20030;-80
2023/03/10 10:55:41;;;;;;;3.30;1.30;;;6.90;99.90;;;;;;4995612;28;20131;-80
2023/03/10 10:58:27;;;;;;;5.93;1.20;;;6.90;99.90;;;;;;4992876;28;20045;-80
2023/03/10 11:00:57;;;;;;;2.43;1.17;;;6.90;99.90;;;;;;4995035;28;20533;-80
2023/03/10 11:03:31;;;;;;;2.30;1.10;;;6.90;99.90;;;;;;5012520;28;20466;-79
2023/03/10 11:05:57;;;;;;;1.73;0.88;;;6.90;99.90;;;;;;4995361;28;20025;-80
2023/03/10 11:08:25;;;;;;;2.47;1.10;;;6.90;99.90;;;;;;4978942;28;20026;-79
2023/03/10 11:11:17;;;;;;;2.50;1.10;;;7.00;99.90;;;;;;4995070;28;20076;-80
2023/03/10 11:14:01;;;;;;;3.20;1.23;;;6.90;99.90;;;;;;5005584;28;20044;-80
2023/03/10 11:16:30;;;;;;;2.13;0.98;;;6.90;99.90;;;;;;4995536;28;20080;-80
2023/03/10 11:19:20;;;;;;;3.47;0.90;;;6.80;99.90;;;;;;5013104;28;20419;-80
2023/03/10 11:21:50;;;;;;;3.27;1.20;;;6.80;99.90;;;;;;4995575;28;20033;-80
2023/03/10 11:24:25;;;;;;;3.10;1.50;;;6.80;99.90;;;;;;4995326;28;20022;-80
2023/03/10 11:27:17;;;;;;;2.83;1.40;;;6.80;99.90;;;;;;5012734;28;20030;-80
2023/03/10 11:29:45;;;;;;;3.40;1.30;;;6.80;99.90;;;;;;4995311;28;20421;-80
2023/03/10 11:32:31;;;;;;;3.20;1.23;;;6.70;99.90;;;;;;4995640;28;20508;-81
2023/03/10 11:34:58;;;;;;;3.93;1.50;;;6.60;99.90;;;;;;4999097;28;20042;-80
2023/03/10 11:37:40;;;;;;;2.97;1.50;;;6.50;99.90;;;;;;4999224;28;20037;-80
2023/03/10 11:40:34;;;;;;;3.73;1.60;;;6.50;99.90;;;;;;4998041;28;20026;-80
2023/03/10 11:43:38;;;;;;;5.95;1.20;;;6.40;99.90;;;;;;5010290;28;20037;-80
2023/03/10 11:46:28;;;;;;;3.70;1.70;;;6.40;99.90;;;;;;5016096;28;20038;-79
2023/03/10 11:49:05;;;;;;;3.33;1.60;;;6.40;99.90;;;;;;4998670;28;20116;-80
2023/03/10 11:51:38;;;;;;;4.80;2.10;;;6.40;99.90;;;;;;4998534;28;20022;-81
2023/03/10 11:54:16;;;;;;;4.80;2.05;;;6.40;99.90;;;;;;4998554;28;20030;-81
2023/03/10 11:56:42;;;;;;;5.47;2.30;;;6.40;99.90;;;;;;5015996;28;20527;-80
2023/03/10 11:59:26;;;;;;;4.43;2.20;;;6.40;99.90;;;;;;5013441;28;20501;-83
2023/03/10 12:01:57;;;;;;;6.07;2.53;;;6.40;99.90;;;;;;4996232;28;20033;-81
2023/03/10 12:04:29;;;;;;;4.00;1.90;;;6.40;99.90;;;;;;5015964;28;20048;-81
2023/03/10 12:07:09;;;;;;;5.23;2.40;;;6.30;99.90;;;;;;4997422;28;20029;-80
2023/03/10 12:09:47;;;;;;;5.20;2.20;;;6.30;99.90;;;;;;4997778;28;20022;-81
2023/03/10 12:12:15;;;;;;;3.43;1.60;;;6.30;99.90;;;;;;5012500;28;20030;-81
2023/03/10 12:14:43;;;;;;;4.77;1.60;;;6.40;99.90;;;;;;4998250;28;20462;-81
2023/03/10 12:17:14;;;;;;;4.93;1.87;;;6.40;99.90;;;;;;4997721;28;20029;-81
2023/03/10 12:20:14;;;;;;;3.20;1.53;;;6.40;99.90;;;;;;5015325;28;20041;-81
2023/03/10 12:23:12;;;;;;;2.50;1.23;;;6.40;99.90;;;;;;4997942;28;20036;-81
2023/03/10 12:25:38;;;;;;;3.23;1.30;;;6.40;99.90;;;;;;5002206;28;20065;-81
2023/03/10 12:28:15;;;;;;;3.00;1.23;;;6.30;99.90;;;;;;4997725;28;20068;-81
2023/03/10 12:30:45;;;;;;;3.70;1.63;;;6.40;99.90;;;;;;4997628;28;20048;-81
2023/03/10 12:33:29;;;;;;;2.80;1.30;;;6.40;99.90;;;;;;5015319;28;20046;-81
2023/03/10 12:36:08;;;;;;;4.20;1.42;;;6.40;99.90;;;;;;4997799;28;20054;-81
2023/03/10 12:38:43;;;;;;;3.10;1.40;;;6.40;99.90;;;;;;4997606;28;20042;-82
2023/03/10 12:41:09;;;;;;;5.03;1.70;;;6.40;99.90;;;;;;4997268;28;20052;-82
2023/03/10 12:43:56;;;;;;;2.67;1.10;;;6.40;99.90;;;;;;4997396;28;20486;-82
2023/03/10 12:47:01;;;;;;;3.80;1.50;;;6.40;99.90;;;;;;4997721;28;20021;-82
2023/03/10 12:49:39;;;;;;;2.40;1.05;;;6.40;99.90;;;;;;5006874;28;20104;-81
2023/03/10 12:52:30;;;;;;;2.53;1.20;;;6.30;99.90;;;;;;4997355;28;20425;-82
2023/03/10 12:55:23;;;;;;;3.93;1.57;;;6.30;99.90;;;;;;4997466;28;20064;-81
2023/03/10 12:57:51;;;;;;;5.13;1.50;;;6.30;99.90;;;;;;5015328;28;20366;-81
2023/03/10 13:00:23;;;;;;;4.70;1.70;;;6.30;99.90;;;;;;4997176;28;20026;-81
2023/03/10 13:03:09;;;;;;;3.00;1.20;;;6.30;99.90;;;;;;5014901;28;20029;-81
2023/03/10 13:05:54;;;;;;;3.73;1.50;;;6.30;99.90;;;;;;4997525;28;20029;-81
2023/03/10 13:08:28;;;;;;;4.40;1.30;;;6.30;99.90;;;;;;5014916;28;20032;-82
2023/03/10 13:10:57;;;;;;;3.33;1.10;;;6.30;99.90;;;;;;4997361;28;20029;-81